KELP/ELP METAR and TAF weather

Enter ICAO airport designator
Station Type Date Time Source
KELP METAR 2018/07/20 13:51 UTC NOAA

KELP 201351Z 17007KT 10SM FEW120 BKN220 28/12 A3008 RMK AO2 SLP098 CB DSNT SW-NW T02830117


Station Type Date Time Source
KELP Decoded METAR 2018/07/20 13:51 UTC NOAA

EL PASO INTERNATIONAL AIRPORT , TX, United States (KELP) 31-49N 106-23W 1197M
Jul 20, 2018 - 09:51 AM EDT / 2018.07.20 1351 UTC
Wind: from the S (170 degrees) at 8 MPH (7 KT):0
Visibility: 10 mile(s):0
Sky conditions: mostly cloudy
Weather: Cumulonimbus clouds observed
Temperature: 82.9 F (28.3 C)
Dew Point: 53.1 F (11.7 C)
Relative Humidity: 35%
Pressure (altimeter): 30.08 in. Hg (1018 hPa)
ob: KELP 201351Z 17007KT 10SM FEW120 BKN220 28/12 A3008 RMK AO2 SLP098 CB DSNT SW-NW T02830117
cycle: 14

Station Type Date Time Source
KELP TAF 2018/07/20 12:24 UTC NOAA

TAF KELP 201122Z 2012/2112 09006KT P6SM FEW140 SCT250
FM201600 12008KT P6SM FEW120


Example: see airport list